Time;durP1;ratioP1;P1;durP2;ratioP2;P2;SDS_P1;SDS_P2;PMS_P1;PMS_P2;Temp;Humidity;BMP_temperature;BMP_pressure;BME280_temperature;BME280_humidity;BME280_pressure;Samples;Min_cycle;Max_cycle;Signal;HPM_P1;HPM_P2
2021/07/06 00:00:00;;;;;;;15.93;14.50;;;16.90;99.90;;;;;;4994745;28;20046;-64
2021/07/06 00:02:25;;;;;;;17.77;16.35;;;16.90;99.90;;;;;;4994579;28;20038;-64
2021/07/06 00:04:59;;;;;;;15.63;14.38;;;16.90;99.90;;;;;;4994364;28;20049;-64
2021/07/06 00:07:25;;;;;;;17.05;15.60;;;16.90;99.90;;;;;;4994581;28;20412;-64
2021/07/06 00:09:51;;;;;;;16.45;15.05;;;16.90;99.90;;;;;;4993136;28;20145;-64
2021/07/06 00:12:17;;;;;;;15.98;14.52;;;16.80;99.90;;;;;;4994191;28;20192;-64
2021/07/06 00:14:44;;;;;;;17.48;15.98;;;16.80;99.90;;;;;;4994335;28;20042;-64
2021/07/06 00:17:10;;;;;;;16.73;15.05;;;16.80;99.90;;;;;;5007940;28;20038;-64
2021/07/06 00:19:36;;;;;;;17.52;15.88;;;16.70;99.90;;;;;;5013902;28;20069;-64
2021/07/06 00:22:02;;;;;;;16.65;15.23;;;16.70;99.90;;;;;;5013429;28;20077;-64
2021/07/06 00:24:27;;;;;;;17.48;15.85;;;16.70;99.90;;;;;;5013804;28;20050;-64
2021/07/06 00:26:53;;;;;;;16.75;15.25;;;16.70;99.90;;;;;;5012888;28;20483;-64
2021/07/06 00:29:19;;;;;;;17.02;15.25;;;16.70;99.90;;;;;;5012461;28;20118;-64
2021/07/06 00:31:44;;;;;;;15.75;14.45;;;16.70;99.90;;;;;;5011362;28;20542;-64
2021/07/06 00:34:10;;;;;;;15.90;14.40;;;16.70;99.90;;;;;;5012657;28;20034;-64
2021/07/06 00:36:36;;;;;;;16.33;14.93;;;16.70;99.90;;;;;;5013235;28;20357;-64
2021/07/06 00:39:03;;;;;;;15.60;14.30;;;16.70;99.90;;;;;;5013700;28;20049;-64
2021/07/06 00:41:29;;;;;;;14.93;13.40;;;16.70;99.90;;;;;;5012513;28;20128;-64
2021/07/06 00:43:55;;;;;;;15.70;14.20;;;16.80;99.90;;;;;;5013425;28;20128;-64
2021/07/06 00:46:21;;;;;;;15.88;14.32;;;16.80;99.90;;;;;;5013046;28;20038;-64
2021/07/06 00:48:47;;;;;;;14.77;13.52;;;16.80;99.90;;;;;;5012201;28;20044;-64
2021/07/06 00:51:13;;;;;;;14.98;13.52;;;16.80;99.90;;;;;;5012397;28;20034;-64
2021/07/06 00:53:39;;;;;;;15.43;13.82;;;16.80;99.90;;;;;;5013156;28;20577;-64
2021/07/06 00:56:04;;;;;;;14.68;13.50;;;16.80;99.90;;;;;;5000480;28;20077;-64
2021/07/06 00:58:31;;;;;;;16.40;14.95;;;16.80;99.90;;;;;;5012761;28;20095;-64
2021/07/06 01:00:56;;;;;;;15.43;13.98;;;16.70;99.90;;;;;;5012413;28;20093;-64
2021/07/06 01:03:23;;;;;;;15.98;14.45;;;16.70;99.90;;;;;;5013088;28;20053;-64
2021/07/06 01:05:49;;;;;;;15.73;14.32;;;16.70;99.90;;;;;;5006461;28;20361;-64
2021/07/06 01:08:15;;;;;;;16.05;14.45;;;16.70;99.90;;;;;;4998529;28;20038;-64
2021/07/06 01:10:40;;;;;;;16.45;14.85;;;16.70;99.90;;;;;;5014853;28;20049;-64
2021/07/06 01:13:08;;;;;;;16.15;14.50;;;16.70;99.90;;;;;;5012690;28;20046;-64
2021/07/06 01:15:35;;;;;;;15.65;14.25;;;16.70;99.90;;;;;;5011285;28;20123;-64
2021/07/06 01:18:09;;;;;;;15.55;14.00;;;16.70;99.90;;;;;;5011353;28;20100;-64
2021/07/06 01:20:47;;;;;;;15.15;13.82;;;16.70;99.90;;;;;;5012414;28;20092;-64
2021/07/06 01:23:15;;;;;;;15.27;13.77;;;16.70;99.90;;;;;;5012623;28;20077;-64
2021/07/06 01:25:42;;;;;;;16.55;15.00;;;16.60;99.90;;;;;;5001927;28;20053;-64
2021/07/06 01:28:07;;;;;;;15.98;14.38;;;16.60;99.90;;;;;;4992876;28;20169;-64
2021/07/06 01:30:34;;;;;;;16.23;14.65;;;16.70;99.90;;;;;;5003221;28;20443;-64
2021/07/06 01:33:00;;;;;;;15.75;14.32;;;16.70;99.90;;;;;;5012416;28;20049;-64
2021/07/06 01:35:27;;;;;;;17.20;15.45;;;16.70;99.90;;;;;;5010994;28;20053;-64
2021/07/06 01:37:55;;;;;;;17.00;15.50;;;16.60;99.90;;;;;;5012213;28;20555;-64
2021/07/06 01:40:23;;;;;;;16.20;14.60;;;16.70;99.90;;;;;;5011502;28;20038;-64
2021/07/06 01:42:50;;;;;;;15.05;13.57;;;16.70;99.90;;;;;;5010163;28;20046;-64
2021/07/06 01:45:17;;;;;;;13.63;12.40;;;16.70;99.90;;;;;;5012186;28;20037;-64
2021/07/06 01:47:47;;;;;;;15.05;13.80;;;16.70;99.90;;;;;;5011787;28;20562;-64
2021/07/06 01:50:18;;;;;;;13.98;12.57;;;16.80;99.90;;;;;;5012183;28;20116;-64
2021/07/06 01:52:46;;;;;;;14.70;13.30;;;16.70;99.90;;;;;;5012070;28;20038;-64
2021/07/06 01:55:14;;;;;;;14.68;12.45;;;16.80;99.90;;;;;;5012079;28;20049;-64
2021/07/06 01:57:41;;;;;;;14.02;12.57;;;16.80;99.90;;;;;;5010748;28;20095;-64
2021/07/06 02:00:08;;;;;;;12.63;11.43;;;16.80;99.90;;;;;;5005359;28;20050;-64
2021/07/06 02:02:39;;;;;;;13.90;12.60;;;16.80;99.90;;;;;;5026520;28;20049;-64
2021/07/06 02:05:14;;;;;;;12.43;11.23;;;16.70;99.90;;;;;;5011500;28;20464;-64
2021/07/06 02:07:40;;;;;;;12.15;10.98;;;16.70;99.90;;;;;;5011692;28;20034;-64
2021/07/06 02:10:06;;;;;;;12.55;11.35;;;16.80;99.90;;;;;;5018788;28;20113;-64
2021/07/06 02:12:32;;;;;;;12.45;11.35;;;16.80;99.90;;;;;;5011698;28;20073;-64
2021/07/06 02:14:59;;;;;;;11.63;10.63;;;16.80;99.90;;;;;;5011690;28;20066;-64
2021/07/06 02:17:25;;;;;;;11.45;10.38;;;16.80;99.90;;;;;;5011684;28;20049;-64
2021/07/06 02:19:51;;;;;;;11.05;9.95;;;16.80;99.90;;;;;;5011425;28;20099;-64
2021/07/06 02:22:17;;;;;;;10.95;9.95;;;16.80;99.90;;;;;;5011738;28;20042;-64
2021/07/06 02:24:42;;;;;;;10.45;9.50;;;16.80;99.90;;;;;;5011436;28;20434;-64
2021/07/06 02:27:08;;;;;;;10.13;9.32;;;16.80;99.90;;;;;;5010694;28;20038;-64
2021/07/06 02:29:34;;;;;;;10.05;9.18;;;16.90;99.90;;;;;;5011481;28;20069;-64
2021/07/06 02:31:59;;;;;;;10.70;9.70;;;16.90;99.90;;;;;;5011529;28;20050;-64
2021/07/06 02:34:25;;;;;;;9.32;8.43;;;16.90;99.90;;;;;;5011377;28;20038;-64
2021/07/06 02:36:51;;;;;;;9.25;8.43;;;16.90;99.90;;;;;;5011246;28;20038;-64
2021/07/06 02:39:17;;;;;;;9.07;8.27;;;16.90;99.90;;;;;;5011001;28;20096;-64
2021/07/06 02:41:42;;;;;;;8.60;7.80;;;17.00;99.90;;;;;;5011393;28;20041;-64
2021/07/06 02:44:08;;;;;;;10.05;8.23;;;17.00;99.90;;;;;;5010095;28;20041;-64
2021/07/06 02:46:34;;;;;;;8.10;7.30;;;17.00;99.90;;;;;;5011635;28;20044;-64
2021/07/06 02:48:59;;;;;;;8.82;8.02;;;17.00;99.90;;;;;;5010796;28;20056;-64
2021/07/06 02:51:25;;;;;;;9.30;8.40;;;17.10;99.90;;;;;;5011229;28;20057;-64
2021/07/06 02:53:51;;;;;;;9.15;8.25;;;17.10;99.90;;;;;;5011626;28;20042;-64
2021/07/06 02:56:17;;;;;;;8.20;7.50;;;17.10;99.90;;;;;;5014040;28;20037;-64
2021/07/06 02:58:42;;;;;;;8.70;8.00;;;17.10;99.90;;;;;;5015132;28;20033;-64
2021/07/06 03:01:09;;;;;;;9.90;7.40;;;17.10;99.90;;;;;;5015446;28;20069;-64
2021/07/06 03:03:35;;;;;;;8.80;7.90;;;17.10;99.90;;;;;;5014873;28;20125;-64
2021/07/06 03:06:00;;;;;;;9.05;8.00;;;17.10;99.90;;;;;;5015372;28;20149;-64
2021/07/06 03:08:30;;;;;;;8.18;7.43;;;17.10;99.90;;;;;;5014585;28;20073;-64
2021/07/06 03:10:56;;;;;;;7.95;7.18;;;17.10;99.90;;;;;;5015126;28;20525;-64
2021/07/06 03:13:22;;;;;;;8.75;7.95;;;17.10;99.90;;;;;;5012319;28;20125;-64
2021/07/06 03:15:47;;;;;;;8.82;8.05;;;17.10;99.90;;;;;;5015054;28;20129;-64
2021/07/06 03:18:14;;;;;;;8.63;7.78;;;17.10;99.90;;;;;;5014886;28;20096;-64
2021/07/06 03:20:40;;;;;;;7.97;7.28;;;17.10;99.90;;;;;;5014999;28;20046;-64
2021/07/06 03:23:06;;;;;;;8.35;7.47;;;17.10;99.90;;;;;;5014804;28;20049;-64
2021/07/06 03:25:33;;;;;;;8.68;7.78;;;17.20;99.90;;;;;;5014846;28;20033;-64
2021/07/06 03:28:00;;;;;;;8.35;7.55;;;17.10;99.90;;;;;;5013502;28;20045;-64
2021/07/06 03:30:28;;;;;;;9.18;7.70;;;17.10;99.90;;;;;;5014751;28;20041;-64
2021/07/06 03:32:56;;;;;;;8.95;7.88;;;17.10;99.90;;;;;;5014110;28;20038;-64
2021/07/06 03:35:23;;;;;;;8.65;7.85;;;17.10;99.90;;;;;;5013985;28;20476;-64
2021/07/06 03:37:49;;;;;;;8.45;7.32;;;17.10;99.90;;;;;;5010087;28;20376;-64
2021/07/06 03:40:15;;;;;;;8.25;7.45;;;17.00;99.90;;;;;;5014011;28;20046;-64
2021/07/06 03:42:41;;;;;;;8.10;7.30;;;17.10;99.90;;;;;;5013482;28;20053;-64
2021/07/06 03:45:09;;;;;;;7.80;7.20;;;17.10;99.90;;;;;;5014154;28;20037;-64
2021/07/06 03:47:35;;;;;;;7.47;6.88;;;17.10;99.90;;;;;;5014365;28;20568;-64
2021/07/06 03:50:01;;;;;;;8.68;6.78;;;17.10;99.90;;;;;;5014439;28;20042;-64
2021/07/06 03:52:27;;;;;;;7.60;6.88;;;17.10;99.90;;;;;;5014175;28;20468;-64
2021/07/06 03:54:52;;;;;;;7.82;7.10;;;17.10;99.90;;;;;;5014302;28;20069;-64
2021/07/06 03:57:30;;;;;;;9.10;7.03;;;17.10;99.90;;;;;;5013942;28;20109;-64
2021/07/06 03:59:58;;;;;;;7.65;6.88;;;17.10;99.90;;;;;;5013740;28;20511;-64
2021/07/06 04:02:24;;;;;;;8.23;6.70;;;17.20;99.90;;;;;;5013729;28;20041;-64
2021/07/06 04:04:50;;;;;;;7.85;6.57;;;17.30;99.90;;;;;;5014041;28;20034;-64
2021/07/06 04:07:15;;;;;;;6.75;6.25;;;17.20;99.90;;;;;;5012866;28;20041;-64
2021/07/06 04:09:41;;;;;;;7.20;6.32;;;17.30;99.90;;;;;;5013929;28;20060;-64
2021/07/06 04:12:07;;;;;;;6.40;5.80;;;17.30;99.90;;;;;;5020918;28;20037;-64
2021/07/06 04:14:32;;;;;;;7.20;6.15;;;17.30;99.90;;;;;;5013889;28;20041;-64
2021/07/06 04:16:58;;;;;;;6.32;5.72;;;17.40;99.90;;;;;;5013078;28;20034;-64
2021/07/06 04:19:24;;;;;;;6.28;5.68;;;17.30;99.90;;;;;;4994320;28;20577;-64
2021/07/06 04:21:50;;;;;;;6.47;5.80;;;17.30;99.90;;;;;;5005547;28;20049;-64
2021/07/06 04:24:16;;;;;;;6.47;5.88;;;17.30;99.90;;;;;;5013396;28;20518;-64
2021/07/06 04:26:41;;;;;;;6.25;5.75;;;17.40;99.90;;;;;;5013305;28;20427;-64
2021/07/06 04:29:07;;;;;;;5.97;5.38;;;17.50;99.90;;;;;;5013528;28;20037;-64
2021/07/06 04:31:32;;;;;;;5.45;5.05;;;17.60;99.90;;;;;;5013086;28;20541;-64
2021/07/06 04:33:58;;;;;;;5.68;5.05;;;17.60;99.90;;;;;;5001161;28;20491;-64
2021/07/06 04:36:24;;;;;;;5.97;5.40;;;17.70;99.90;;;;;;5013351;28;20034;-64
2021/07/06 04:38:49;;;;;;;5.35;4.90;;;17.70;99.90;;;;;;5013358;28;20052;-64
2021/07/06 04:41:15;;;;;;;6.53;4.78;;;17.70;99.90;;;;;;5012778;28;20064;-64
2021/07/06 04:43:41;;;;;;;4.93;4.53;;;17.80;99.90;;;;;;5013427;28;20050;-64
2021/07/06 04:46:06;;;;;;;4.95;4.55;;;17.80;99.90;;;;;;5012941;28;20042;-64
2021/07/06 04:48:32;;;;;;;4.85;4.05;;;17.80;99.90;;;;;;5013364;28;20042;-64
2021/07/06 04:51:04;;;;;;;5.15;4.50;;;17.80;99.90;;;;;;5011861;28;20076;-64
2021/07/06 04:53:30;;;;;;;5.53;4.43;;;17.80;99.90;;;;;;5013231;28;20049;-64
2021/07/06 04:55:55;;;;;;;4.47;3.90;;;17.90;99.90;;;;;;5012434;28;20057;-64
2021/07/06 04:58:21;;;;;;;4.10;3.70;;;18.00;99.90;;;;;;5013092;28;20056;-64
2021/07/06 05:00:47;;;;;;;7.82;3.50;;;18.10;99.90;;;;;;5012219;28;20499;-64
2021/07/06 05:03:13;;;;;;;3.47;3.17;;;18.20;99.90;;;;;;5009524;28;20109;-64
2021/07/06 05:05:39;;;;;;;3.45;3.00;;;18.20;99.90;;;;;;5012234;28;20404;-64
2021/07/06 05:08:06;;;;;;;3.58;2.72;;;18.30;99.90;;;;;;5008042;28;20057;-64
2021/07/06 05:10:34;;;;;;;2.67;2.33;;;18.30;99.90;;;;;;5011523;28;20447;-64
2021/07/06 05:13:00;;;;;;;3.05;2.50;;;18.40;99.90;;;;;;5011850;28;20506;-64
2021/07/06 05:15:27;;;;;;;4.13;2.22;;;18.40;99.90;;;;;;5011685;28;20054;-64
2021/07/06 05:17:52;;;;;;;2.65;2.20;;;18.50;99.90;;;;;;5008312;28;20034;-64
2021/07/06 05:20:18;;;;;;;2.00;1.80;;;18.60;99.90;;;;;;5011757;28;20041;-64
2021/07/06 05:22:44;;;;;;;2.60;1.98;;;18.70;99.90;;;;;;5018036;28;20049;-64
2021/07/06 05:25:10;;;;;;;2.08;1.70;;;18.80;99.90;;;;;;5011251;28;20042;-64
2021/07/06 05:27:36;;;;;;;3.63;1.63;;;18.90;99.90;;;;;;5012224;28;20034;-64
2021/07/06 05:30:04;;;;;;;3.65;1.48;;;19.10;99.90;;;;;;5012355;28;20105;-64
2021/07/06 05:32:30;;;;;;;3.38;2.03;;;19.20;99.90;;;;;;5012400;28;20456;-64
2021/07/06 05:34:56;;;;;;;1.52;1.40;;;19.40;99.90;;;;;;5012487;28;20064;-64
2021/07/06 05:37:22;;;;;;;1.23;1.13;;;19.60;99.90;;;;;;5012415;28;20038;-64
2021/07/06 05:39:48;;;;;;;2.25;1.30;;;19.70;99.90;;;;;;5012084;28;20535;-64
2021/07/06 05:42:14;;;;;;;1.67;1.25;;;19.80;99.90;;;;;;4994629;28;20133;-64
2021/07/06 05:44:42;;;;;;;1.52;1.35;;;19.80;99.90;;;;;;4992858;28;20439;-64
2021/07/06 05:47:08;;;;;;;2.00;1.42;;;19.80;99.90;;;;;;4992603;28;20597;-64
2021/07/06 05:49:34;;;;;;;1.73;1.25;;;19.80;99.90;;;;;;4991371;28;20039;-64
2021/07/06 05:51:59;;;;;;;2.92;1.40;;;19.60;99.90;;;;;;4992373;28;20433;-64
2021/07/06 05:54:25;;;;;;;1.42;1.33;;;19.60;99.90;;;;;;4992507;28;20046;-64
2021/07/06 05:56:51;;;;;;;2.00;1.30;;;19.60;99.90;;;;;;4992056;28;20046;-64
2021/07/06 05:59:16;;;;;;;1.35;1.20;;;19.50;99.90;;;;;;5002238;28;20076;-64
2021/07/06 06:01:42;;;;;;;2.45;1.40;;;19.50;99.90;;;;;;5011752;28;20045;-64
2021/07/06 06:04:08;;;;;;;2.67;1.13;;;19.30;99.90;;;;;;5012025;28;20041;-64
2021/07/06 06:06:33;;;;;;;2.50;1.45;;;19.30;99.90;;;;;;5011968;28;20044;-64
2021/07/06 06:08:59;;;;;;;4.70;1.52;;;19.30;99.90;;;;;;5011786;28;20690;-64
2021/07/06 06:11:25;;;;;;;4.43;1.90;;;19.20;99.90;;;;;;5011692;28;20874;-64
2021/07/06 06:13:50;;;;;;;2.42;1.80;;;19.00;99.90;;;;;;5005979;28;20058;-64
2021/07/06 06:16:16;;;;;;;1.95;1.60;;;18.90;99.90;;;;;;4992214;28;20088;-64
2021/07/06 06:18:42;;;;;;;2.60;2.20;;;18.80;99.90;;;;;;4992097;28;20038;-64
2021/07/06 06:21:08;;;;;;;2.50;2.30;;;18.70;99.90;;;;;;5001489;28;20361;-64
2021/07/06 06:23:34;;;;;;;2.35;2.15;;;18.60;99.90;;;;;;5011585;28;20041;-64
2021/07/06 06:25:59;;;;;;;3.38;1.80;;;18.60;99.90;;;;;;5011576;28;20076;-64
2021/07/06 06:28:25;;;;;;;2.17;1.98;;;18.50;99.90;;;;;;5010839;28;20472;-64
2021/07/06 06:30:51;;;;;;;2.25;1.92;;;18.60;99.90;;;;;;4997128;28;20034;-64
2021/07/06 06:33:17;;;;;;;2.25;2.05;;;18.60;99.90;;;;;;4991819;28;20037;-64
2021/07/06 06:35:42;;;;;;;2.40;2.20;;;18.60;99.90;;;;;;4991973;28;20046;-64
2021/07/06 06:38:08;;;;;;;3.28;2.00;;;18.60;99.90;;;;;;5001255;28;20042;-64
2021/07/06 06:40:34;;;;;;;2.05;1.80;;;18.60;99.90;;;;;;5010735;28;20119;-64
2021/07/06 06:43:00;;;;;;;2.80;1.77;;;18.60;99.90;;;;;;4997518;28;20034;-64
2021/07/06 06:45:30;;;;;;;3.92;2.00;;;18.60;99.90;;;;;;4993064;28;20042;-64
2021/07/06 06:47:56;;;;;;;2.30;2.10;;;18.60;99.90;;;;;;5021726;28;20474;-64
2021/07/06 06:50:22;;;;;;;2.75;1.83;;;18.60;99.90;;;;;;5010228;28;20038;-64
2021/07/06 06:52:47;;;;;;;2.00;1.90;;;18.60;99.90;;;;;;5010544;28;20092;-64
2021/07/06 06:55:13;;;;;;;2.50;2.30;;;18.60;99.90;;;;;;5009375;28;20033;-64
2021/07/06 06:57:39;;;;;;;3.72;1.90;;;18.70;99.90;;;;;;5008208;28;20049;-64
2021/07/06 07:00:06;;;;;;;2.50;2.30;;;18.80;99.90;;;;;;5011165;28;20034;-64
2021/07/06 07:02:32;;;;;;;3.35;2.10;;;18.80;99.90;;;;;;5019172;28;20033;-64
2021/07/06 07:04:58;;;;;;;3.38;2.10;;;18.80;99.90;;;;;;5030981;28;20710;-64
2021/07/06 07:07:24;;;;;;;2.47;2.28;;;18.80;99.90;;;;;;5026465;28;20537;-64
2021/07/06 07:09:50;;;;;;;4.05;2.20;;;18.80;99.90;;;;;;5015075;28;20721;-64
2021/07/06 07:12:17;;;;;;;3.38;1.98;;;18.70;99.90;;;;;;5011260;28;20034;-64
2021/07/06 07:14:43;;;;;;;3.95;2.00;;;18.80;99.90;;;;;;5013506;28;20040;-64
2021/07/06 07:17:09;;;;;;;3.92;2.17;;;18.80;99.90;;;;;;5011874;28;20046;-64
2021/07/06 07:19:35;;;;;;;3.40;2.10;;;18.90;99.90;;;;;;5011725;28;20091;-64
2021/07/06 07:22:04;;;;;;;3.05;2.25;;;18.90;99.90;;;;;;5017101;28;20096;-64
2021/07/06 07:24:30;;;;;;;4.35;1.83;;;19.00;99.90;;;;;;5011193;28;20037;-64
2021/07/06 07:26:57;;;;;;;3.97;2.05;;;19.00;99.90;;;;;;5010960;28;20073;-64
2021/07/06 07:29:22;;;;;;;2.67;1.90;;;19.10;99.90;;;;;;5010644;28;20038;-64
2021/07/06 07:31:48;;;;;;;3.42;2.08;;;19.20;99.90;;;;;;5008470;28;20555;-64
2021/07/06 07:34:14;;;;;;;3.85;2.03;;;19.30;99.90;;;;;;5008647;28;20046;-64
2021/07/06 07:36:41;;;;;;;3.38;2.20;;;19.40;99.90;;;;;;5027827;28;20534;-64
2021/07/06 07:39:07;;;;;;;4.40;1.80;;;19.40;99.90;;;;;;5012776;28;20049;-64
2021/07/06 07:41:34;;;;;;;2.65;2.10;;;19.50;99.90;;;;;;5027152;28;20042;-65
2021/07/06 07:43:59;;;;;;;2.95;1.63;;;19.50;99.90;;;;;;5022633;28;20096;-65
2021/07/06 07:46:26;;;;;;;2.90;2.00;;;19.60;99.90;;;;;;5013929;28;20046;-64
2021/07/06 07:48:52;;;;;;;4.97;2.30;;;19.70;99.90;;;;;;5012174;28;20053;-64
2021/07/06 07:51:18;;;;;;;2.45;2.00;;;19.70;99.90;;;;;;5013099;28;20034;-65
2021/07/06 07:53:45;;;;;;;4.15;1.90;;;19.80;99.90;;;;;;5014531;28;20034;-64
2021/07/06 07:56:12;;;;;;;2.38;1.80;;;19.90;99.90;;;;;;5014208;28;20091;-64
2021/07/06 07:58:38;;;;;;;4.38;1.80;;;19.90;99.90;;;;;;5023558;28;20526;-64
2021/07/06 08:01:04;;;;;;;2.25;2.00;;;20.00;99.90;;;;;;5033543;28;20116;-64
2021/07/06 08:03:29;;;;;;;3.45;2.10;;;20.00;99.90;;;;;;5013976;28;20045;-64
2021/07/06 08:05:58;;;;;;;2.55;2.03;;;20.00;99.90;;;;;;5009504;28;20038;-64
2021/07/06 08:08:24;;;;;;;3.33;1.70;;;20.10;99.90;;;;;;5012159;28;20153;-63
2021/07/06 08:10:53;;;;;;;1.70;1.60;;;20.10;99.90;;;;;;5013615;28;20056;-64
2021/07/06 08:13:23;;;;;;;2.67;1.77;;;20.20;99.90;;;;;;4996190;28;20516;-64
2021/07/06 08:15:50;;;;;;;2.28;1.60;;;20.40;99.90;;;;;;5011688;28;20549;-64
2021/07/06 08:18:17;;;;;;;3.25;1.58;;;20.50;99.90;;;;;;5012269;28;20033;-64
2021/07/06 08:20:44;;;;;;;5.72;2.05;;;20.60;99.90;;;;;;4995668;28;20050;-64
2021/07/06 08:23:10;;;;;;;4.35;1.88;;;20.60;99.90;;;;;;5013132;28;20131;-64
2021/07/06 08:25:36;;;;;;;3.17;1.80;;;20.70;99.90;;;;;;5012688;28;20065;-64
2021/07/06 08:28:02;;;;;;;4.13;2.00;;;20.70;99.90;;;;;;5013854;28;20038;-64
2021/07/06 08:30:28;;;;;;;3.50;2.13;;;20.80;99.90;;;;;;5013636;28;20042;-64
2021/07/06 08:32:54;;;;;;;3.35;1.73;;;20.80;99.90;;;;;;4997259;28;20107;-64
2021/07/06 08:35:19;;;;;;;3.85;1.67;;;20.80;99.90;;;;;;4994438;28;20038;-64
2021/07/06 08:37:45;;;;;;;3.08;1.90;;;20.90;99.90;;;;;;5012211;28;20030;-64
2021/07/06 08:40:11;;;;;;;4.22;1.80;;;20.90;99.90;;;;;;5045689;22;20045;-63
2021/07/06 08:42:37;;;;;;;3.30;2.03;;;21.00;99.90;;;;;;5051360;28;20037;-63
2021/07/06 08:45:04;;;;;;;2.25;1.70;;;21.10;99.90;;;;;;5049704;28;20124;-62
2021/07/06 08:47:30;;;;;;;2.67;1.73;;;21.20;99.90;;;;;;5047700;28;20033;-63
2021/07/06 08:49:57;;;;;;;4.53;1.98;;;21.30;99.90;;;;;;5049777;28;20041;-62
2021/07/06 08:52:23;;;;;;;4.13;1.90;;;21.50;99.90;;;;;;5046946;28;20530;-62
2021/07/06 08:54:49;;;;;;;3.88;1.70;;;21.60;99.90;;;;;;5046122;28;20049;-62
2021/07/06 08:57:21;;;;;;;2.58;1.67;;;21.80;99.90;;;;;;5044929;28;20535;-63
2021/07/06 08:59:47;;;;;;;2.05;1.60;;;21.90;99.90;;;;;;5044935;28;20577;-62
2021/07/06 09:02:13;;;;;;;3.35;1.70;;;22.10;99.90;;;;;;5049704;28;20048;-62
2021/07/06 09:04:43;;;;;;;2.05;1.40;;;22.10;99.90;;;;;;5065986;28;20032;-62
2021/07/06 09:07:09;;;;;;;2.42;1.70;;;22.20;99.90;;;;;;5060356;28;20033;-63
2021/07/06 09:09:34;;;;;;;3.58;1.65;;;22.30;99.90;;;;;;5052273;28;20509;-63
2021/07/06 09:12:00;;;;;;;3.83;1.70;;;22.40;99.90;;;;;;5051832;28;20037;-63
2021/07/06 09:14:31;;;;;;;4.35;1.75;;;22.30;99.90;;;;;;5052549;28;20402;-62
2021/07/06 09:17:31;;;;;;;2.27;1.30;;;22.30;99.90;;;;;;5052450;28;20036;-62
2021/07/06 09:19:57;;;;;;;2.58;1.00;;;22.30;99.90;;;;;;5048404;28;20393;-62
2021/07/06 09:22:26;;;;;;;2.22;1.48;;;22.40;99.90;;;;;;5051551;28;20033;-63
2021/07/06 09:25:02;;;;;;;5.97;1.42;;;22.40;99.90;;;;;;5048513;28;20094;-62
2021/07/06 09:27:29;;;;;;;6.00;1.20;;;22.60;99.90;;;;;;5045986;28;20040;-62
2021/07/06 09:30:14;;;;;;;2.10;1.30;;;22.70;99.90;;;;;;5051097;28;20044;-62
2021/07/06 09:32:46;;;;;;;1.20;1.10;;;22.90;99.90;;;;;;5036699;28;20128;-63
2021/07/06 09:35:18;;;;;;;2.33;1.20;;;23.00;99.90;;;;;;5050948;28;20068;-63
2021/07/06 09:38:05;;;;;;;2.80;1.40;;;23.20;99.90;;;;;;5031540;28;20037;-62
2021/07/06 09:40:34;;;;;;;1.80;1.10;;;23.30;99.90;;;;;;5034724;28;20052;-62
2021/07/06 09:43:27;;;;;;;1.50;1.10;;;23.40;98.90;;;;;;5051934;28;20056;-62
2021/07/06 09:46:11;;;;;;;1.35;1.17;;;23.50;98.10;;;;;;5051696;28;20044;-62
2021/07/06 09:48:43;;;;;;;2.75;1.10;;;23.60;99.60;;;;;;5051960;28;20041;-62
2021/07/06 09:51:21;;;;;;;1.42;0.95;;;23.80;97.50;;;;;;5051339;28;20112;-62
2021/07/06 09:53:54;;;;;;;2.25;0.77;;;23.80;97.50;;;;;;5051820;28;20493;-62
2021/07/06 09:56:24;;;;;;;2.42;0.90;;;23.90;96.70;;;;;;5023182;28;20467;-62
2021/07/06 09:58:54;;;;;;;3.42;1.10;;;23.90;97.20;;;;;;5048700;28;20043;-62
2021/07/06 10:01:20;;;;;;;1.48;1.00;;;24.00;95.50;;;;;;5048234;28;20065;-62
2021/07/06 10:03:49;;;;;;;2.35;1.17;;;24.00;95.30;;;;;;5054670;28;20041;-62
2021/07/06 10:06:16;;;;;;;1.55;0.90;;;23.60;95.40;;;;;;5064458;28;20051;-61
2021/07/06 10:08:41;;;;;;;1.65;0.90;;;23.60;96.60;;;;;;5068062;28;20080;-62
2021/07/06 10:11:08;;;;;;;4.82;0.98;;;23.50;96.20;;;;;;5049760;28;20049;-63
2021/07/06 10:13:36;;;;;;;2.47;1.00;;;23.60;96.80;;;;;;5049815;28;20102;-62
2021/07/06 10:16:04;;;;;;;2.13;0.98;;;23.60;96.20;;;;;;5045988;28;20053;-62
2021/07/06 10:18:32;;;;;;;1.25;0.82;;;23.60;97.80;;;;;;5040232;28;20095;-62
2021/07/06 10:21:03;;;;;;;2.03;0.90;;;23.80;96.70;;;;;;5050109;28;20068;-63
2021/07/06 10:23:29;;;;;;;1.33;0.90;;;24.00;96.90;;;;;;5050489;28;20067;-63
2021/07/06 10:25:58;;;;;;;4.15;0.80;;;24.20;96.20;;;;;;5050307;28;20045;-62
2021/07/06 10:28:26;;;;;;;2.55;0.95;;;24.40;95.40;;;;;;5049775;28;20033;-63
2021/07/06 10:30:53;;;;;;;2.05;1.00;;;24.40;95.00;;;;;;5050552;28;20041;-63
2021/07/06 10:33:30;;;;;;;2.28;0.88;;;24.40;96.30;;;;;;5049440;28;20037;-63
2021/07/06 10:35:57;;;;;;;1.83;0.88;;;24.20;94.80;;;;;;5050975;28;20111;-63
2021/07/06 10:38:28;;;;;;;2.75;1.00;;;24.40;95.20;;;;;;5050888;28;20064;-63
2021/07/06 10:40:57;;;;;;;;;;;24.50;94.90;;;;;;5051248;28;20103;-63
2021/07/06 10:43:51;;;;;;;1.15;0.70;;;24.50;94.70;;;;;;5050819;28;19924;-62
2021/07/06 10:46:20;;;;;;;2.20;0.85;;;24.70;94.60;;;;;;5050882;28;20490;-62
2021/07/06 10:49:03;;;;;;;2.13;1.00;;;24.80;94.70;;;;;;5040753;28;20060;-63
2021/07/06 10:51:36;;;;;;;3.08;0.93;;;24.90;94.10;;;;;;5031063;28;20038;-62
2021/07/06 10:54:14;;;;;;;2.30;0.88;;;25.00;94.70;;;;;;5047407;28;20363;-63
2021/07/06 10:56:43;;;;;;;2.05;0.85;;;25.00;93.50;;;;;;5041004;28;20508;-63
2021/07/06 10:59:29;;;;;;;2.60;0.80;;;25.00;92.50;;;;;;5047989;28;20044;-62
2021/07/06 11:02:22;;;;;;;3.55;0.90;;;25.00;94.30;;;;;;5050787;28;20033;-63
2021/07/06 11:04:51;;;;;;;1.65;0.80;;;24.90;93.20;;;;;;5040375;28;20044;-63
2021/07/06 11:07:29;;;;;;;1.90;0.85;;;24.70;93.40;;;;;;5050218;28;20049;-62
2021/07/06 11:09:54;;;;;;;3.00;0.80;;;24.20;93.70;;;;;;5038614;28;20037;-62
2021/07/06 11:12:25;;;;;;;2.40;0.93;;;23.80;93.90;;;;;;5049440;28;20112;-62
2021/07/06 11:14:56;;;;;;;1.60;0.93;;;23.60;94.00;;;;;;5049862;28;20041;-63
2021/07/06 11:17:42;;;;;;;4.45;1.10;;;23.20;94.00;;;;;;5051987;28;20121;-62
2021/07/06 11:20:10;;;;;;;3.95;1.20;;;23.10;94.40;;;;;;5053274;28;20102;-62
2021/07/06 11:22:47;;;;;;;2.55;1.10;;;22.90;95.50;;;;;;5052342;28;20545;-62
2021/07/06 11:25:19;;;;;;;2.40;1.05;;;22.90;95.30;;;;;;5053698;28;20037;-63
2021/07/06 11:28:07;;;;;;;3.20;1.05;;;22.80;96.40;;;;;;5051482;28;20037;-63
2021/07/06 11:30:46;;;;;;;1.65;0.90;;;23.20;96.40;;;;;;5051031;28;20106;-63
2021/07/06 11:33:18;;;;;;;2.65;1.05;;;23.70;95.00;;;;;;5047571;28;20044;-63
2021/07/06 11:35:52;;;;;;;2.47;0.88;;;23.70;94.70;;;;;;5054127;28;20040;-63
2021/07/06 11:38:30;;;;;;;1.88;0.80;;;24.00;94.50;;;;;;5047572;28;20032;-62
2021/07/06 11:40:59;;;;;;;3.58;0.85;;;24.20;94.10;;;;;;5048020;28;20128;-63
2021/07/06 11:43:26;;;;;;;0.98;0.68;;;24.40;94.40;;;;;;5053643;28;20036;-62
2021/07/06 11:45:57;;;;;;;2.08;0.93;;;24.50;93.30;;;;;;5052935;28;20041;-62
2021/07/06 11:48:26;;;;;;;2.53;0.70;;;24.60;93.20;;;;;;5053102;28;20056;-62
2021/07/06 11:50:52;;;;;;;3.60;1.00;;;24.70;92.70;;;;;;5053696;28;20131;-62
2021/07/06 11:53:26;;;;;;;1.60;0.82;;;24.70;92.10;;;;;;5052632;28;20099;-62
2021/07/06 11:55:54;;;;;;;2.00;0.88;;;24.60;91.00;;;;;;5053736;28;20394;-62
2021/07/06 11:58:23;;;;;;;3.20;1.05;;;24.60;91.40;;;;;;5053863;28;20041;-62
2021/07/06 12:00:49;;;;;;;2.80;0.70;;;24.80;91.80;;;;;;5053654;28;20178;-62
2021/07/06 12:03:19;;;;;;;1.90;0.65;;;24.90;91.10;;;;;;5053279;28;20482;-62
2021/07/06 12:05:47;;;;;;;1.90;0.93;;;24.90;91.60;;;;;;5042724;28;20382;-61
2021/07/06 12:08:15;;;;;;;1.60;0.60;;;25.00;91.00;;;;;;5055704;28;20037;-61
2021/07/06 12:11:02;;;;;;;1.88;0.60;;;25.20;90.40;;;;;;5024272;28;20513;-62
2021/07/06 12:13:39;;;;;;;2.50;0.68;;;25.00;89.50;;;;;;5033563;28;20406;-62
2021/07/06 12:16:07;;;;;;;3.70;0.80;;;24.80;90.60;;;;;;5033642;28;20594;-61
2021/07/06 12:18:35;;;;;;;3.92;1.00;;;25.00;91.00;;;;;;5040091;28;20040;-61
2021/07/06 12:21:07;;;;;;;3.30;0.73;;;25.10;91.20;;;;;;5053560;28;20561;-61
2021/07/06 12:23:43;;;;;;;1.42;0.75;;;25.20;90.50;;;;;;5053486;28;20041;-62
2021/07/06 12:26:10;;;;;;;1.80;0.77;;;25.40;89.20;;;;;;5051493;28;20118;-61
2021/07/06 12:28:40;;;;;;;3.05;0.90;;;25.60;89.10;;;;;;5052939;28;20037;-62
2021/07/06 12:31:13;;;;;;;2.35;1.00;;;25.60;87.40;;;;;;5053482;28;20037;-61
2021/07/06 12:33:38;;;;;;;3.70;1.08;;;25.80;90.10;;;;;;5053186;28;20029;-61
2021/07/06 12:36:04;;;;;;;2.50;0.75;;;25.80;87.40;;;;;;5052970;28;20043;-61
2021/07/06 12:38:30;;;;;;;6.90;1.20;;;25.90;89.40;;;;;;5053054;28;20356;-61
2021/07/06 12:40:57;;;;;;;3.67;0.82;;;25.70;86.50;;;;;;5053165;28;20052;-62
2021/07/06 12:43:23;;;;;;;4.30;1.00;;;25.70;87.10;;;;;;5042674;28;20450;-61
2021/07/06 12:45:49;;;;;;;4.07;1.00;;;25.70;88.40;;;;;;5053169;28;20038;-62